createdAt,value
2023-01-20T00:02:28.678Z,99882.94
2023-01-20T00:06:30.743Z,99883.00
2023-01-20T00:10:32.452Z,99884.00
2023-01-20T00:14:34.493Z,99899.44
2023-01-20T00:18:37.892Z,99899.34
2023-01-20T00:22:42.360Z,99899.44
2023-01-20T00:26:44.504Z,99909.09
2023-01-20T00:30:46.537Z,99922.06
2023-01-20T00:34:48.205Z,99926.31
2023-01-20T00:38:50.969Z,99932.16
2023-01-20T00:42:52.875Z,99940.63
2023-01-20T00:46:55.080Z,99940.75
2023-01-20T00:50:57.170Z,99942.50
2023-01-20T00:54:58.798Z,99954.47
2023-01-20T00:59:00.674Z,99955.13
2023-01-20T01:03:03.271Z,99951.66
2023-01-20T01:07:05.032Z,99953.34
2023-01-20T01:11:07.479Z,99948.28
2023-01-20T01:15:10.037Z,99950.84
2023-01-20T01:19:12.035Z,99958.72
2023-01-20T01:23:14.045Z,99963.72
2023-01-20T01:27:15.894Z,99972.47
2023-01-20T01:31:24.658Z,99971.69
2023-01-20T01:35:26.307Z,99976.78
2023-01-20T01:39:28.600Z,99985.25
2023-01-20T01:43:34.058Z,99976.66
2023-01-20T01:47:38.783Z,99982.75
2023-01-20T01:52:06.249Z,99985.13
2023-01-20T01:56:10.210Z,99984.41
2023-01-20T02:00:12.646Z,99985.97
2023-01-20T02:04:21.814Z,99965.06
2023-01-20T02:08:25.362Z,99976.19
2023-01-20T02:12:28.217Z,99976.31
2023-01-20T02:16:56.136Z,99980.53
2023-01-20T02:21:34.258Z,99987.59
2023-01-20T02:25:54.224Z,99998.56
2023-01-20T02:30:23.621Z,99983.03
2023-01-20T02:34:44.100Z,99995.22
2023-01-20T02:39:04.420Z,99991.50
2023-01-20T02:43:29.961Z,99988.06
2023-01-20T02:47:51.523Z,99993.13
2023-01-20T02:52:16.814Z,99980.91
2023-01-20T02:56:24.291Z,99976.16
2023-01-20T03:00:32.606Z,99976.06
2023-01-20T03:04:40.675Z,99973.41
2023-01-20T03:08:43.048Z,99979.28
2023-01-20T03:12:53.287Z,99979.28
2023-01-20T03:16:55.631Z,99990.59
2023-01-20T03:20:59.606Z,99992.31
2023-01-20T03:25:03.363Z,100005.41
2023-01-20T03:29:07.240Z,99989.88
2023-01-20T03:33:10.162Z,99991.75
2023-01-20T03:37:13.015Z,99993.38
2023-01-20T03:41:36.333Z,100002.97
2023-01-20T03:45:51.454Z,100007.19
2023-01-20T03:49:59.461Z,100026.03
2023-01-20T03:54:07.253Z,100035.56
2023-01-20T03:58:13.976Z,100025.06
2023-01-20T04:02:16.005Z,100040.69
2023-01-20T04:06:21.610Z,100060.38
2023-01-20T04:10:27.330Z,100064.78
2023-01-20T04:14:29.477Z,100058.91
2023-01-20T04:18:31.806Z,100071.00
2023-01-20T04:22:40.715Z,100086.06
2023-01-20T04:26:42.865Z,100104.88
2023-01-20T04:30:45.037Z,100102.44
2023-01-20T04:34:47.032Z,100102.13
2023-01-20T04:38:48.969Z,100103.28
2023-01-20T04:42:51.072Z,100112.75
2023-01-20T04:46:57.841Z,100110.25
2023-01-20T04:51:04.231Z,100115.09
2023-01-20T04:55:06.659Z,100116.16
2023-01-20T04:59:08.589Z,100126.19
2023-01-20T05:03:10.598Z,100133.09
2023-01-20T05:07:12.808Z,100129.56
2023-01-20T05:11:14.417Z,100140.09
2023-01-20T05:15:16.619Z,100137.22
2023-01-20T05:19:18.818Z,100154.75
2023-01-20T05:23:20.804Z,100139.81
2023-01-20T05:27:22.773Z,100149.44
2023-01-20T05:31:25.070Z,100158.97
2023-01-20T05:35:27.041Z,100162.38
2023-01-20T05:39:29.078Z,100173.38
2023-01-20T05:43:31.242Z,100180.31
2023-01-20T05:47:33.225Z,100189.72
2023-01-20T05:51:35.193Z,100190.78
2023-01-20T05:55:37.152Z,100207.28
2023-01-20T05:59:39.101Z,100222.44
2023-01-20T06:03:41.205Z,100224.19
2023-01-20T06:07:43.527Z,100237.84
2023-01-20T06:11:45.516Z,100254.25
2023-01-20T06:15:55.214Z,100273.59
2023-01-20T06:19:57.406Z,100283.59
2023-01-20T06:23:59.428Z,100293.06
2023-01-20T06:28:01.435Z,100305.09
2023-01-20T06:32:04.023Z,100304.16
2023-01-20T06:36:07.313Z,100314.63
2023-01-20T06:40:09.921Z,100324.06
2023-01-20T06:44:11.843Z,100328.47
2023-01-20T06:48:13.836Z,100326.09
2023-01-20T06:52:15.846Z,100325.88
2023-01-20T06:56:17.834Z,100336.13
2023-01-20T07:00:20.411Z,100329.56
2023-01-20T07:04:22.409Z,100345.75
2023-01-20T07:08:24.569Z,100340.34
2023-01-20T07:12:26.265Z,100332.78
2023-01-20T07:16:28.633Z,100344.50
2023-01-20T07:20:30.660Z,100348.78
2023-01-20T07:24:32.582Z,100358.25
2023-01-20T07:28:35.426Z,100368.38
2023-01-20T07:32:37.470Z,100364.13
2023-01-20T07:36:39.575Z,100358.66
2023-01-20T07:40:41.560Z,100364.72
2023-01-20T07:44:43.842Z,100368.91
2023-01-20T07:48:46.207Z,100362.69
2023-01-20T07:52:48.165Z,100362.59
2023-01-20T07:56:50.613Z,100359.28
2023-01-20T08:00:52.239Z,100361.91
2023-01-20T08:04:54.189Z,100356.09
2023-01-20T08:09:00.664Z,100361.09
2023-01-20T08:13:03.002Z,100353.31
2023-01-20T08:17:05.125Z,100354.31
2023-01-20T08:21:15.827Z,100356.66
2023-01-20T08:25:17.797Z,100354.03
2023-01-20T08:29:19.847Z,100357.97
2023-01-20T08:33:21.869Z,100361.41
2023-01-20T08:37:23.772Z,100360.41
2023-01-20T08:41:29.409Z,100351.56
2023-01-20T08:45:31.644Z,100353.03
2023-01-20T08:49:33.572Z,100356.03
2023-01-20T08:53:35.928Z,100350.34
2023-01-20T08:57:37.705Z,100354.44
2023-01-20T09:01:39.802Z,100362.00
2023-01-20T09:05:41.801Z,100354.94
2023-01-20T09:09:43.709Z,100358.44
2023-01-20T09:13:46.419Z,100363.69
2023-01-20T09:17:48.424Z,100363.44
2023-01-20T09:21:50.352Z,100368.03
2023-01-20T09:25:52.373Z,100376.41
2023-01-20T09:29:54.339Z,100379.50
2023-01-20T09:33:56.440Z,100387.06
2023-01-20T09:38:17.189Z,100388.56
2023-01-20T09:42:43.802Z,100390.34
2023-01-20T09:47:17.286Z,100402.00
2023-01-20T09:51:52.916Z,100404.66
2023-01-20T09:56:14.037Z,100408.63
2023-01-20T10:00:24.777Z,100403.34
2023-01-20T10:04:43.736Z,100415.88
2023-01-20T10:09:05.361Z,100417.88
2023-01-20T10:13:19.527Z,100413.88
2023-01-20T10:17:34.744Z,100412.88
2023-01-20T10:21:52.631Z,100402.50
2023-01-20T10:26:22.081Z,100399.16
2023-01-20T10:30:30.240Z,100419.00
2023-01-20T10:34:45.328Z,100416.03
2023-01-20T10:39:04.122Z,100427.31
2023-01-20T10:43:16.522Z,100425.41
2023-01-20T10:47:24.809Z,100434.53
2023-01-20T10:51:39.346Z,100436.91
2023-01-20T10:55:50.310Z,100445.19
2023-01-20T11:00:03.030Z,100426.88
2023-01-20T11:04:05.367Z,100436.38
2023-01-20T11:08:17.094Z,100432.09
2023-01-20T11:12:24.323Z,100431.03
2023-01-20T11:16:29.015Z,100424.44
2023-01-20T11:20:31.373Z,100429.94
2023-01-20T11:24:43.086Z,100439.97
2023-01-20T11:28:59.024Z,100451.97
2023-01-20T11:33:18.431Z,100454.63
2023-01-20T11:37:25.493Z,100464.56
2023-01-20T11:41:29.260Z,100457.53
2023-01-20T11:45:34.713Z,100460.91
2023-01-20T11:49:37.209Z,100466.84
2023-01-20T11:53:39.320Z,100469.34
2023-01-20T11:57:50.495Z,100469.63
2023-01-20T12:01:57.974Z,100479.00
2023-01-20T12:06:10.018Z,100478.47
2023-01-20T12:10:17.695Z,100471.56
2023-01-20T12:14:27.627Z,100482.00
2023-01-20T12:18:37.658Z,100501.34
2023-01-20T12:22:58.772Z,100496.88
2023-01-20T12:27:00.811Z,100513.25
2023-01-20T12:31:09.708Z,100523.13
2023-01-20T12:35:15.147Z,100518.63
2023-01-20T12:39:44.270Z,100523.81
2023-01-20T12:43:57.920Z,100515.13
2023-01-20T12:48:18.709Z,100516.94
2023-01-20T12:52:34.308Z,100511.63
2023-01-20T12:56:58.270Z,100514.34
2023-01-20T13:01:10.818Z,100515.28
2023-01-20T13:05:50.297Z,100502.16
2023-01-20T13:10:02.846Z,100504.03
2023-01-20T13:14:23.223Z,100506.81
2023-01-20T13:18:36.974Z,100511.16
2023-01-20T13:22:39.087Z,100523.50
2023-01-20T13:26:41.777Z,100507.69
2023-01-20T13:30:51.566Z,100504.22
2023-01-20T13:34:54.197Z,100496.31
2023-01-20T13:39:30.176Z,100501.72
2023-01-20T13:43:32.115Z,100500.78
2023-01-20T13:47:58.701Z,100492.41
2023-01-20T13:52:00.716Z,100498.38
2023-01-20T13:56:02.849Z,100497.59
2023-01-20T14:00:12.280Z,100503.53
2023-01-20T14:04:17.037Z,100498.22
2023-01-20T14:08:20.146Z,100506.28
2023-01-20T14:12:22.039Z,100504.47
2023-01-20T14:16:29.281Z,100514.53
2023-01-20T14:20:31.756Z,100516.97
2023-01-20T14:24:36.586Z,100534.09
2023-01-20T14:29:00.158Z,100551.31
2023-01-20T14:52:02.373Z,100573.31
2023-01-20T14:56:07.665Z,100581.13
2023-01-20T15:00:09.994Z,100596.72
2023-01-20T15:04:12.868Z,100604.34
2023-01-20T15:08:26.100Z,100603.56
2023-01-20T15:12:33.751Z,100601.84
2023-01-20T15:16:35.703Z,100609.53
2023-01-20T15:20:41.143Z,100608.53
2023-01-20T15:24:47.084Z,100616.53
2023-01-20T15:28:49.335Z,100619.19
2023-01-20T15:32:52.186Z,100624.94
2023-01-20T15:36:55.869Z,100629.56
2023-01-20T15:40:58.066Z,100639.16
2023-01-20T15:45:00.098Z,100632.97
2023-01-20T15:49:02.293Z,100636.34
2023-01-20T15:53:06.366Z,100639.84
2023-01-20T15:57:13.190Z,100631.38
2023-01-20T16:01:18.164Z,100630.69
2023-01-20T16:05:20.382Z,100631.47
2023-01-20T16:09:27.435Z,100622.13
2023-01-20T16:13:29.373Z,100623.88
2023-01-20T16:17:34.365Z,100640.22
2023-01-20T16:21:36.763Z,100645.31
2023-01-20T16:25:39.388Z,100648.22
2023-01-20T16:29:41.360Z,100672.31
2023-01-20T16:33:43.459Z,100679.34
2023-01-20T16:37:47.594Z,100675.88
2023-01-20T16:41:49.826Z,100683.66
2023-01-20T16:45:54.639Z,100686.28
2023-01-20T16:49:56.327Z,100680.25
2023-01-20T16:53:59.198Z,100676.06
2023-01-20T16:58:01.257Z,100680.25
2023-01-20T17:02:03.207Z,100676.84
2023-01-20T17:06:13.887Z,100676.03
2023-01-20T17:10:17.701Z,100681.25
2023-01-20T17:14:19.833Z,100687.28
2023-01-20T17:18:21.949Z,100689.78
2023-01-20T17:22:23.641Z,100687.19
2023-01-20T17:26:26.004Z,100685.31
2023-01-20T17:30:28.162Z,100688.94
2023-01-20T17:34:30.349Z,100694.19
2023-01-20T17:38:35.773Z,100698.44
2023-01-20T17:42:38.141Z,100702.59
2023-01-20T17:46:40.128Z,100693.91
2023-01-20T17:50:42.177Z,100689.72
2023-01-20T17:54:44.172Z,100682.75
2023-01-20T17:58:47.332Z,100693.97
2023-01-20T18:02:49.027Z,100700.78
2023-01-20T18:06:51.146Z,100699.00
2023-01-20T18:10:53.185Z,100707.78
2023-01-20T18:14:54.857Z,100714.63
2023-01-20T18:18:58.885Z,100714.66
2023-01-20T18:23:00.794Z,100712.97
2023-01-20T18:27:02.769Z,100703.69
2023-01-20T18:31:10.631Z,100715.47
2023-01-20T18:35:12.694Z,100721.53
2023-01-20T18:39:14.730Z,100722.41
2023-01-20T18:43:16.791Z,100715.47
2023-01-20T18:47:18.818Z,100718.03
2023-01-20T18:51:22.473Z,100715.34
2023-01-20T18:55:24.468Z,100714.50
2023-01-20T18:59:26.465Z,100713.72
2023-01-20T19:03:28.847Z,100711.81
2023-01-20T19:07:30.463Z,100723.13
2023-01-20T19:11:36.102Z,100716.94
2023-01-20T19:15:38.103Z,100722.19
2023-01-20T19:19:40.117Z,100725.66
2023-01-20T19:23:42.983Z,100723.03
2023-01-20T19:27:44.766Z,100728.13
2023-01-20T19:31:46.782Z,100723.94
2023-01-20T19:35:48.833Z,100730.09
2023-01-20T19:39:50.782Z,100725.78
2023-01-20T19:43:57.911Z,100724.94
2023-01-20T19:47:59.880Z,100721.25
2023-01-20T19:52:01.841Z,100712.00
2023-01-20T19:56:07.002Z,100715.19
2023-01-20T20:00:09.613Z,100711.88
2023-01-20T20:04:14.490Z,100703.19
2023-01-20T20:08:16.168Z,100704.06
2023-01-20T20:12:18.168Z,100695.41
2023-01-20T20:16:20.351Z,100697.88
2023-01-20T20:20:22.047Z,100701.44
2023-01-20T20:24:24.295Z,100703.19
2023-01-20T20:28:28.169Z,100697.09
2023-01-20T20:32:30.043Z,100697.81
2023-01-20T20:36:32.807Z,100689.38
2023-01-20T20:40:35.015Z,100673.09
2023-01-20T20:44:36.904Z,100680.75
2023-01-20T20:48:38.886Z,100671.25
2023-01-20T20:52:40.809Z,100673.91
2023-01-20T20:56:43.600Z,100679.16
2023-01-20T21:00:49.687Z,100680.78
2023-01-20T21:04:51.862Z,100694.84
2023-01-20T21:08:54.475Z,100691.97
2023-01-20T21:12:56.692Z,100687.81
2023-01-20T21:16:58.787Z,100681.69
2023-01-20T21:21:02.378Z,100677.53
2023-01-20T21:25:04.987Z,100673.09
2023-01-20T21:29:07.612Z,100666.22
2023-01-20T21:33:13.267Z,100673.09
2023-01-20T21:37:15.421Z,100661.06
2023-01-20T21:41:18.848Z,100674.81
2023-01-20T21:45:20.976Z,100658.41
2023-01-20T21:49:41.881Z,100669.81
2023-01-20T21:53:45.881Z,100665.41
2023-01-20T21:57:50.273Z,100645.66
2023-01-20T22:01:53.889Z,100662.94
2023-01-20T22:05:55.735Z,100664.63
2023-01-20T22:09:58.356Z,100661.22
2023-01-20T22:14:00.559Z,100661.28
2023-01-20T22:18:02.238Z,100668.09
2023-01-20T22:22:05.011Z,100657.78
2023-01-20T22:26:07.201Z,100645.63
2023-01-20T22:30:09.897Z,100628.44
2023-01-20T22:34:12.584Z,100626.81
2023-01-20T22:38:15.265Z,100627.47
2023-01-20T22:42:17.356Z,100625.97
2023-01-20T22:46:21.368Z,100614.66
2023-01-20T22:50:23.740Z,100608.63
2023-01-20T22:54:25.631Z,100606.84
2023-01-20T22:58:27.584Z,100617.31
2023-01-20T23:02:29.328Z,100600.81
2023-01-20T23:06:34.014Z,100601.63
2023-01-20T23:10:48.036Z,100615.56
2023-01-20T23:14:59.038Z,100598.28
2023-01-20T23:19:01.112Z,100582.88
2023-01-20T23:23:03.177Z,100584.50
2023-01-20T23:27:05.137Z,100593.22
2023-01-20T23:31:09.927Z,100590.72
2023-01-20T23:35:11.976Z,100582.13
2023-01-20T23:39:14.244Z,100570.97
2023-01-20T23:43:16.411Z,100568.13
2023-01-20T23:47:18.605Z,100573.34
2023-01-20T23:51:21.016Z,100582.06
2023-01-20T23:55:22.832Z,100565.59
2023-01-20T23:59:24.824Z,100567.31
